sensor_id;sensor_type;location;lat;lon;timestamp;temperature;humidity
25046;DHT22;13044;49.304;12.840;2023-08-24T00:01:58;20.20;99.90
25046;DHT22;13044;49.304;12.840;2023-08-24T00:04:25;20.20;99.90
25046;DHT22;13044;49.304;12.840;2023-08-24T00:06:51;20.20;99.90
25046;DHT22;13044;49.304;12.840;2023-08-24T00:09:18;20.10;99.90
25046;DHT22;13044;49.304;12.840;2023-08-24T00:11:45;20.10;99.90
25046;DHT22;13044;49.304;12.840;2023-08-24T00:14:12;20.10;99.90
25046;DHT22;13044;49.304;12.840;2023-08-24T00:16:39;20.00;99.90
25046;DHT22;13044;49.304;12.840;2023-08-24T00:19:07;19.90;99.90
25046;DHT22;13044;49.304;12.840;2023-08-24T00:21:34;19.90;99.90
25046;DHT22;13044;49.304;12.840;2023-08-24T00:24:01;19.90;99.90
25046;DHT22;13044;49.304;12.840;2023-08-24T00:26:28;19.90;99.90
25046;DHT22;13044;49.304;12.840;2023-08-24T00:28:55;19.90;99.90
25046;DHT22;13044;49.304;12.840;2023-08-24T00:31:22;19.80;99.90
25046;DHT22;13044;49.304;12.840;2023-08-24T00:33:49;19.70;99.90
25046;DHT22;13044;49.304;12.840;2023-08-24T00:36:17;19.70;99.90
25046;DHT22;13044;49.304;12.840;2023-08-24T00:38:47;19.50;99.90
25046;DHT22;13044;49.304;12.840;2023-08-24T00:41:17;19.50;99.90
25046;DHT22;13044;49.304;12.840;2023-08-24T00:43:44;19.50;99.90
25046;DHT22;13044;49.304;12.840;2023-08-24T00:46:11;19.50;99.90
25046;DHT22;13044;49.304;12.840;2023-08-24T00:48:38;19.50;99.90
25046;DHT22;13044;49.304;12.840;2023-08-24T00:51:05;19.50;99.90
25046;DHT22;13044;49.304;12.840;2023-08-24T00:53:32;19.50;99.90
25046;DHT22;13044;49.304;12.840;2023-08-24T00:56:00;19.50;99.90
25046;DHT22;13044;49.304;12.840;2023-08-24T00:58:27;19.50;99.90
25046;DHT22;13044;49.304;12.840;2023-08-24T01:00:56;19.50;99.90
25046;DHT22;13044;49.304;12.840;2023-08-24T01:03:24;19.50;99.90
25046;DHT22;13044;49.304;12.840;2023-08-24T01:05:52;19.50;99.90
25046;DHT22;13044;49.304;12.840;2023-08-24T01:08:20;19.50;99.90
25046;DHT22;13044;49.304;12.840;2023-08-24T01:16:28;19.40;99.90
25046;DHT22;13044;49.304;12.840;2023-08-24T01:18:57;19.40;99.90
25046;DHT22;13044;49.304;12.840;2023-08-24T01:21:29;19.30;99.90
25046;DHT22;13044;49.304;12.840;2023-08-24T01:24:17;19.30;99.90
25046;DHT22;13044;49.304;12.840;2023-08-24T01:26:47;19.30;99.90
25046;DHT22;13044;49.304;12.840;2023-08-24T01:29:15;19.30;99.90
25046;DHT22;13044;49.304;12.840;2023-08-24T01:31:42;19.30;99.90
25046;DHT22;13044;49.304;12.840;2023-08-24T01:34:09;19.20;99.90
25046;DHT22;13044;49.304;12.840;2023-08-24T01:36:36;19.20;99.90
25046;DHT22;13044;49.304;12.840;2023-08-24T01:39:12;19.20;99.90
25046;DHT22;13044;49.304;12.840;2023-08-24T01:42:02;19.20;99.90
25046;DHT22;13044;49.304;12.840;2023-08-24T01:44:34;19.20;99.90
25046;DHT22;13044;49.304;12.840;2023-08-24T01:47:03;19.10;99.90
25046;DHT22;13044;49.304;12.840;2023-08-24T01:49:33;19.20;99.90
25046;DHT22;13044;49.304;12.840;2023-08-24T01:52:02;19.10;99.90
25046;DHT22;13044;49.304;12.840;2023-08-24T01:54:31;19.20;99.90
25046;DHT22;13044;49.304;12.840;2023-08-24T01:56:58;19.20;99.90
25046;DHT22;13044;49.304;12.840;2023-08-24T01:59:25;19.20;99.90
25046;DHT22;13044;49.304;12.840;2023-08-24T02:01:52;19.10;99.90
25046;DHT22;13044;49.304;12.840;2023-08-24T02:04:18;19.10;99.90
25046;DHT22;13044;49.304;12.840;2023-08-24T02:06:45;19.10;99.90
25046;DHT22;13044;49.304;12.840;2023-08-24T02:09:12;19.10;99.90
25046;DHT22;13044;49.304;12.840;2023-08-24T02:11:39;19.10;99.90
25046;DHT22;13044;49.304;12.840;2023-08-24T02:14:06;19.00;99.90
25046;DHT22;13044;49.304;12.840;2023-08-24T02:16:33;19.00;99.90
25046;DHT22;13044;49.304;12.840;2023-08-24T02:19:00;19.00;99.90
25046;DHT22;13044;49.304;12.840;2023-08-24T02:21:27;18.90;99.90
25046;DHT22;13044;49.304;12.840;2023-08-24T02:23:54;18.90;99.90
25046;DHT22;13044;49.304;12.840;2023-08-24T02:26:21;18.80;99.90
25046;DHT22;13044;49.304;12.840;2023-08-24T02:28:48;18.80;99.90
25046;DHT22;13044;49.304;12.840;2023-08-24T02:31:15;18.80;99.90
25046;DHT22;13044;49.304;12.840;2023-08-24T02:33:42;18.70;99.90
25046;DHT22;13044;49.304;12.840;2023-08-24T02:36:09;18.70;99.90
25046;DHT22;13044;49.304;12.840;2023-08-24T02:38:36;18.70;99.90
25046;DHT22;13044;49.304;12.840;2023-08-24T02:41:04;18.70;99.90
25046;DHT22;13044;49.304;12.840;2023-08-24T02:43:33;18.70;99.90
25046;DHT22;13044;49.304;12.840;2023-08-24T02:46:06;18.60;99.90
25046;DHT22;13044;49.304;12.840;2023-08-24T02:48:34;18.60;99.90
25046;DHT22;13044;49.304;12.840;2023-08-24T02:51:03;18.60;99.90
25046;DHT22;13044;49.304;12.840;2023-08-24T02:53:31;18.60;99.90
25046;DHT22;13044;49.304;12.840;2023-08-24T02:55:58;18.60;99.90
25046;DHT22;13044;49.304;12.840;2023-08-24T02:58:25;18.50;99.90
25046;DHT22;13044;49.304;12.840;2023-08-24T03:00:54;18.50;99.90
25046;DHT22;13044;49.304;12.840;2023-08-24T03:03:21;18.40;99.90
25046;DHT22;13044;49.304;12.840;2023-08-24T03:06:07;18.40;99.90
25046;DHT22;13044;49.304;12.840;2023-08-24T03:08:35;18.30;99.90
25046;DHT22;13044;49.304;12.840;2023-08-24T03:11:02;18.20;99.90
25046;DHT22;13044;49.304;12.840;2023-08-24T03:13:30;18.20;99.90
25046;DHT22;13044;49.304;12.840;2023-08-24T03:15:57;18.20;99.90
25046;DHT22;13044;49.304;12.840;2023-08-24T03:18:29;18.20;99.90
25046;DHT22;13044;49.304;12.840;2023-08-24T03:20:56;18.10;99.90
25046;DHT22;13044;49.304;12.840;2023-08-24T03:23:23;18.10;99.90
25046;DHT22;13044;49.304;12.840;2023-08-24T03:25:50;18.10;99.90
25046;DHT22;13044;49.304;12.840;2023-08-24T03:28:18;18.10;99.90
25046;DHT22;13044;49.304;12.840;2023-08-24T03:30:51;18.10;99.90
25046;DHT22;13044;49.304;12.840;2023-08-24T03:33:19;18.10;99.90
25046;DHT22;13044;49.304;12.840;2023-08-24T03:35:46;18.00;99.90
25046;DHT22;13044;49.304;12.840;2023-08-24T03:38:13;18.00;99.90
25046;DHT22;13044;49.304;12.840;2023-08-24T03:40:40;18.00;99.90
25046;DHT22;13044;49.304;12.840;2023-08-24T03:43:07;18.00;99.90
25046;DHT22;13044;49.304;12.840;2023-08-24T03:45:34;18.00;99.90
25046;DHT22;13044;49.304;12.840;2023-08-24T03:48:01;18.00;99.90
25046;DHT22;13044;49.304;12.840;2023-08-24T03:50:28;18.00;99.90
25046;DHT22;13044;49.304;12.840;2023-08-24T03:52:55;17.90;99.90
25046;DHT22;13044;49.304;12.840;2023-08-24T03:55:22;17.90;99.90
25046;DHT22;13044;49.304;12.840;2023-08-24T03:57:49;17.90;99.90
25046;DHT22;13044;49.304;12.840;2023-08-24T04:00:17;17.90;99.90
25046;DHT22;13044;49.304;12.840;2023-08-24T04:02:44;17.90;99.90
25046;DHT22;13044;49.304;12.840;2023-08-24T04:05:11;17.90;99.90
25046;DHT22;13044;49.304;12.840;2023-08-24T04:07:38;17.80;99.90
25046;DHT22;13044;49.304;12.840;2023-08-24T04:10:07;17.80;99.90
25046;DHT22;13044;49.304;12.840;2023-08-24T04:12:35;17.80;99.90
25046;DHT22;13044;49.304;12.840;2023-08-24T04:15:02;17.70;99.90
25046;DHT22;13044;49.304;12.840;2023-08-24T04:17:30;17.70;99.90
25046;DHT22;13044;49.304;12.840;2023-08-24T04:19:57;17.70;99.90
25046;DHT22;13044;49.304;12.840;2023-08-24T04:22:23;17.70;99.90
25046;DHT22;13044;49.304;12.840;2023-08-24T04:24:50;17.70;99.90
25046;DHT22;13044;49.304;12.840;2023-08-24T04:27:17;17.70;99.90
25046;DHT22;13044;49.304;12.840;2023-08-24T04:29:45;17.70;99.90
25046;DHT22;13044;49.304;12.840;2023-08-24T04:32:12;17.70;99.90
25046;DHT22;13044;49.304;12.840;2023-08-24T04:34:39;17.70;99.90
25046;DHT22;13044;49.304;12.840;2023-08-24T04:37:06;17.70;99.90
25046;DHT22;13044;49.304;12.840;2023-08-24T04:39:33;17.70;99.90
25046;DHT22;13044;49.304;12.840;2023-08-24T04:42:01;17.70;99.90
25046;DHT22;13044;49.304;12.840;2023-08-24T04:44:29;17.70;99.90
25046;DHT22;13044;49.304;12.840;2023-08-24T04:46:56;17.70;99.90
25046;DHT22;13044;49.304;12.840;2023-08-24T04:49:23;17.70;99.90
25046;DHT22;13044;49.304;12.840;2023-08-24T04:51:50;17.70;99.90
25046;DHT22;13044;49.304;12.840;2023-08-24T04:54:17;17.80;99.90
25046;DHT22;13044;49.304;12.840;2023-08-24T04:56:45;17.80;99.90
25046;DHT22;13044;49.304;12.840;2023-08-24T04:59:11;17.80;99.90
25046;DHT22;13044;49.304;12.840;2023-08-24T05:01:38;17.80;99.90
25046;DHT22;13044;49.304;12.840;2023-08-24T05:04:05;17.80;99.90
25046;DHT22;13044;49.304;12.840;2023-08-24T05:06:32;17.80;99.90
25046;DHT22;13044;49.304;12.840;2023-08-24T05:08:59;17.80;99.90
25046;DHT22;13044;49.304;12.840;2023-08-24T05:11:27;17.80;99.90
25046;DHT22;13044;49.304;12.840;2023-08-24T05:13:57;17.80;99.90
25046;DHT22;13044;49.304;12.840;2023-08-24T05:16:24;17.80;99.90
25046;DHT22;13044;49.304;12.840;2023-08-24T05:18:51;17.80;99.90
25046;DHT22;13044;49.304;12.840;2023-08-24T05:21:18;17.90;99.90
25046;DHT22;13044;49.304;12.840;2023-08-24T05:23:45;17.90;99.90
25046;DHT22;13044;49.304;12.840;2023-08-24T05:26:12;17.90;99.90
25046;DHT22;13044;49.304;12.840;2023-08-24T05:28:39;17.80;99.90
25046;DHT22;13044;49.304;12.840;2023-08-24T05:31:06;17.80;99.90
25046;DHT22;13044;49.304;12.840;2023-08-24T05:33:33;17.80;99.90
25046;DHT22;13044;49.304;12.840;2023-08-24T05:36:00;17.80;99.90
25046;DHT22;13044;49.304;12.840;2023-08-24T05:38:27;17.80;99.90
25046;DHT22;13044;49.304;12.840;2023-08-24T05:40:54;17.80;99.90
25046;DHT22;13044;49.304;12.840;2023-08-24T05:43:20;17.90;99.90
25046;DHT22;13044;49.304;12.840;2023-08-24T05:45:48;17.90;99.90
25046;DHT22;13044;49.304;12.840;2023-08-24T05:48:15;18.00;99.90
25046;DHT22;13044;49.304;12.840;2023-08-24T05:50:44;18.00;99.90
25046;DHT22;13044;49.304;12.840;2023-08-24T05:53:12;18.10;99.90
25046;DHT22;13044;49.304;12.840;2023-08-24T05:55:39;18.20;99.90
25046;DHT22;13044;49.304;12.840;2023-08-24T05:58:06;18.20;99.90
25046;DHT22;13044;49.304;12.840;2023-08-24T06:00:33;18.20;99.90
25046;DHT22;13044;49.304;12.840;2023-08-24T06:03:00;18.30;99.90
25046;DHT22;13044;49.304;12.840;2023-08-24T06:05:27;18.40;99.90
25046;DHT22;13044;49.304;12.840;2023-08-24T06:07:54;18.40;99.90
25046;DHT22;13044;49.304;12.840;2023-08-24T06:10:21;18.50;99.90
25046;DHT22;13044;49.304;12.840;2023-08-24T06:12:48;18.60;99.90
25046;DHT22;13044;49.304;12.840;2023-08-24T06:15:15;18.60;99.90
25046;DHT22;13044;49.304;12.840;2023-08-24T06:17:42;18.70;99.90
25046;DHT22;13044;49.304;12.840;2023-08-24T06:20:10;18.70;99.90
25046;DHT22;13044;49.304;12.840;2023-08-24T06:22:37;18.80;99.90
25046;DHT22;13044;49.304;12.840;2023-08-24T06:25:05;18.80;99.90
25046;DHT22;13044;49.304;12.840;2023-08-24T06:27:35;18.90;99.90
25046;DHT22;13044;49.304;12.840;2023-08-24T06:30:03;19.00;99.90
25046;DHT22;13044;49.304;12.840;2023-08-24T06:32:31;19.10;99.90
25046;DHT22;13044;49.304;12.840;2023-08-24T06:34:58;19.10;99.90
25046;DHT22;13044;49.304;12.840;2023-08-24T06:37:27;19.20;99.90
25046;DHT22;13044;49.304;12.840;2023-08-24T06:39:53;19.30;99.90
25046;DHT22;13044;49.304;12.840;2023-08-24T06:42:20;19.30;99.90
25046;DHT22;13044;49.304;12.840;2023-08-24T06:44:47;19.40;99.90
25046;DHT22;13044;49.304;12.840;2023-08-24T06:47:17;19.50;99.90
25046;DHT22;13044;49.304;12.840;2023-08-24T06:49:44;19.60;99.90
25046;DHT22;13044;49.304;12.840;2023-08-24T06:52:11;19.60;99.90
25046;DHT22;13044;49.304;12.840;2023-08-24T06:54:38;19.70;99.90
25046;DHT22;13044;49.304;12.840;2023-08-24T06:57:05;19.80;99.90
25046;DHT22;13044;49.304;12.840;2023-08-24T06:59:32;19.90;99.90
25046;DHT22;13044;49.304;12.840;2023-08-24T07:01:59;20.00;99.90
25046;DHT22;13044;49.304;12.840;2023-08-24T07:04:26;20.10;99.90
25046;DHT22;13044;49.304;12.840;2023-08-24T07:06:54;20.10;99.90
25046;DHT22;13044;49.304;12.840;2023-08-24T07:09:21;20.20;99.90
25046;DHT22;13044;49.304;12.840;2023-08-24T07:11:48;20.30;99.90
25046;DHT22;13044;49.304;12.840;2023-08-24T07:14:15;20.40;99.90
25046;DHT22;13044;49.304;12.840;2023-08-24T07:16:42;20.60;99.90
25046;DHT22;13044;49.304;12.840;2023-08-24T07:19:09;20.70;99.90
25046;DHT22;13044;49.304;12.840;2023-08-24T07:21:36;20.80;99.90
25046;DHT22;13044;49.304;12.840;2023-08-24T07:24:04;20.90;99.90
25046;DHT22;13044;49.304;12.840;2023-08-24T07:26:31;21.10;99.90
25046;DHT22;13044;49.304;12.840;2023-08-24T07:28:59;21.20;99.90
25046;DHT22;13044;49.304;12.840;2023-08-24T07:31:26;21.40;99.90
25046;DHT22;13044;49.304;12.840;2023-08-24T07:33:53;21.50;99.90
25046;DHT22;13044;49.304;12.840;2023-08-24T07:36:20;21.60;99.90
25046;DHT22;13044;49.304;12.840;2023-08-24T07:38:47;21.80;99.90
25046;DHT22;13044;49.304;12.840;2023-08-24T07:41:14;22.00;99.90
25046;DHT22;13044;49.304;12.840;2023-08-24T07:43:41;22.20;99.90
25046;DHT22;13044;49.304;12.840;2023-08-24T07:46:08;22.30;99.90
25046;DHT22;13044;49.304;12.840;2023-08-24T07:48:36;22.50;99.90
25046;DHT22;13044;49.304;12.840;2023-08-24T07:51:03;22.70;99.90
25046;DHT22;13044;49.304;12.840;2023-08-24T07:53:30;22.90;99.90
25046;DHT22;13044;49.304;12.840;2023-08-24T07:56:00;23.00;99.90
25046;DHT22;13044;49.304;12.840;2023-08-24T07:58:28;23.10;99.90
25046;DHT22;13044;49.304;12.840;2023-08-24T08:00:55;23.30;99.90
25046;DHT22;13044;49.304;12.840;2023-08-24T08:03:22;23.50;99.90
25046;DHT22;13044;49.304;12.840;2023-08-24T08:05:49;23.60;99.90
25046;DHT22;13044;49.304;12.840;2023-08-24T08:08:16;23.70;99.90
25046;DHT22;13044;49.304;12.840;2023-08-24T08:10:43;23.80;99.90
25046;DHT22;13044;49.304;12.840;2023-08-24T08:13:10;24.00;99.90
25046;DHT22;13044;49.304;12.840;2023-08-24T08:15:38;24.10;99.90
25046;DHT22;13044;49.304;12.840;2023-08-24T08:18:05;24.20;99.90
25046;DHT22;13044;49.304;12.840;2023-08-24T08:20:32;24.20;99.90
25046;DHT22;13044;49.304;12.840;2023-08-24T08:22:59;24.30;99.90
25046;DHT22;13044;49.304;12.840;2023-08-24T08:25:27;24.50;99.90
25046;DHT22;13044;49.304;12.840;2023-08-24T08:27:54;24.70;99.90
25046;DHT22;13044;49.304;12.840;2023-08-24T08:30:21;24.90;99.90
25046;DHT22;13044;49.304;12.840;2023-08-24T08:32:48;25.00;99.80
25046;DHT22;13044;49.304;12.840;2023-08-24T08:35:18;25.00;99.90
25046;DHT22;13044;49.304;12.840;2023-08-24T08:37:45;25.00;99.50
25046;DHT22;13044;49.304;12.840;2023-08-24T08:40:13;25.10;99.20
25046;DHT22;13044;49.304;12.840;2023-08-24T08:42:40;25.10;99.00
25046;DHT22;13044;49.304;12.840;2023-08-24T08:45:10;25.10;98.70
25046;DHT22;13044;49.304;12.840;2023-08-24T08:47:38;25.20;98.90
25046;DHT22;13044;49.304;12.840;2023-08-24T08:50:08;25.20;98.40
25046;DHT22;13044;49.304;12.840;2023-08-24T08:52:36;25.20;98.50
25046;DHT22;13044;49.304;12.840;2023-08-24T08:55:03;25.30;98.60
25046;DHT22;13044;49.304;12.840;2023-08-24T08:57:33;25.40;98.80
25046;DHT22;13044;49.304;12.840;2023-08-24T09:00:00;25.50;98.60
25046;DHT22;13044;49.304;12.840;2023-08-24T09:02:29;25.60;98.60
25046;DHT22;13044;49.304;12.840;2023-08-24T09:04:57;25.60;98.50
25046;DHT22;13044;49.304;12.840;2023-08-24T09:07:24;25.80;98.30
25046;DHT22;13044;49.304;12.840;2023-08-24T09:09:52;25.90;98.40
25046;DHT22;13044;49.304;12.840;2023-08-24T09:12:19;26.00;98.50
25046;DHT22;13044;49.304;12.840;2023-08-24T09:14:46;26.20;98.40
25046;DHT22;13044;49.304;12.840;2023-08-24T09:17:22;26.30;97.60
25046;DHT22;13044;49.304;12.840;2023-08-24T09:19:50;26.50;97.70
25046;DHT22;13044;49.304;12.840;2023-08-24T09:22:19;26.60;97.30
25046;DHT22;13044;49.304;12.840;2023-08-24T09:24:49;26.80;97.00
25046;DHT22;13044;49.304;12.840;2023-08-24T09:27:20;27.00;96.40
25046;DHT22;13044;49.304;12.840;2023-08-24T09:29:52;27.10;95.80
25046;DHT22;13044;49.304;12.840;2023-08-24T09:32:23;27.30;95.50
25046;DHT22;13044;49.304;12.840;2023-08-24T09:34:51;27.50;95.20
25046;DHT22;13044;49.304;12.840;2023-08-24T09:37:18;27.60;94.60
25046;DHT22;13044;49.304;12.840;2023-08-24T09:39:46;27.80;94.30
25046;DHT22;13044;49.304;12.840;2023-08-24T09:42:14;27.90;93.50
25046;DHT22;13044;49.304;12.840;2023-08-24T09:44:44;28.00;93.00
25046;DHT22;13044;49.304;12.840;2023-08-24T09:47:13;28.10;91.20
25046;DHT22;13044;49.304;12.840;2023-08-24T09:49:41;28.20;91.60
25046;DHT22;13044;49.304;12.840;2023-08-24T09:52:08;28.20;90.90
25046;DHT22;13044;49.304;12.840;2023-08-24T09:54:37;28.30;90.70
25046;DHT22;13044;49.304;12.840;2023-08-24T09:57:06;28.40;90.80
25046;DHT22;13044;49.304;12.840;2023-08-24T09:59:39;28.60;90.10
25046;DHT22;13044;49.304;12.840;2023-08-24T10:02:16;28.60;89.40
25046;DHT22;13044;49.304;12.840;2023-08-24T10:04:47;28.70;86.60
25046;DHT22;13044;49.304;12.840;2023-08-24T10:07:20;28.80;85.80
25046;DHT22;13044;49.304;12.840;2023-08-24T10:09:59;28.90;84.10
25046;DHT22;13044;49.304;12.840;2023-08-24T10:12:31;28.90;83.70
25046;DHT22;13044;49.304;12.840;2023-08-24T10:15:02;29.00;82.10
25046;DHT22;13044;49.304;12.840;2023-08-24T10:17:33;29.00;82.00
25046;DHT22;13044;49.304;12.840;2023-08-24T10:20:02;29.00;81.50
25046;DHT22;13044;49.304;12.840;2023-08-24T10:22:37;29.10;81.90
25046;DHT22;13044;49.304;12.840;2023-08-24T10:25:08;29.20;80.70
25046;DHT22;13044;49.304;12.840;2023-08-24T10:27:35;29.20;79.30
25046;DHT22;13044;49.304;12.840;2023-08-24T10:30:03;29.30;77.20
25046;DHT22;13044;49.304;12.840;2023-08-24T10:32:31;29.40;76.90
25046;DHT22;13044;49.304;12.840;2023-08-24T10:34:58;29.40;77.70
25046;DHT22;13044;49.304;12.840;2023-08-24T10:37:26;29.50;77.60
25046;DHT22;13044;49.304;12.840;2023-08-24T10:39:54;29.60;76.80
25046;DHT22;13044;49.304;12.840;2023-08-24T10:42:21;29.70;77.70
25046;DHT22;13044;49.304;12.840;2023-08-24T10:44:48;29.80;76.60
25046;DHT22;13044;49.304;12.840;2023-08-24T10:47:19;29.90;75.90
25046;DHT22;13044;49.304;12.840;2023-08-24T10:49:58;30.00;74.40
25046;DHT22;13044;49.304;12.840;2023-08-24T10:52:31;30.10;72.90
25046;DHT22;13044;49.304;12.840;2023-08-24T10:55:04;30.20;73.30
25046;DHT22;13044;49.304;12.840;2023-08-24T10:57:36;30.20;73.40
25046;DHT22;13044;49.304;12.840;2023-08-24T11:00:08;30.20;73.30
25046;DHT22;13044;49.304;12.840;2023-08-24T11:02:52;30.30;74.10
25046;DHT22;13044;49.304;12.840;2023-08-24T11:05:28;30.40;74.00
25046;DHT22;13044;49.304;12.840;2023-08-24T11:08:02;30.60;72.50
25046;DHT22;13044;49.304;12.840;2023-08-24T11:13:11;30.60;67.20
25046;DHT22;13044;49.304;12.840;2023-08-24T11:15:43;30.70;65.40
25046;DHT22;13044;49.304;12.840;2023-08-24T11:18:23;30.70;63.50
25046;DHT22;13044;49.304;12.840;2023-08-24T11:21:04;30.80;64.10
25046;DHT22;13044;49.304;12.840;2023-08-24T11:23:33;30.80;61.40
25046;DHT22;13044;49.304;12.840;2023-08-24T11:26:01;30.90;61.50
25046;DHT22;13044;49.304;12.840;2023-08-24T11:28:29;31.00;62.40
25046;DHT22;13044;49.304;12.840;2023-08-24T11:30:58;31.10;60.80
25046;DHT22;13044;49.304;12.840;2023-08-24T11:33:33;31.20;58.50
25046;DHT22;13044;49.304;12.840;2023-08-24T11:36:04;31.20;57.70
25046;DHT22;13044;49.304;12.840;2023-08-24T11:41:17;31.30;57.60
25046;DHT22;13044;49.304;12.840;2023-08-24T11:43:46;31.30;57.00
25046;DHT22;13044;49.304;12.840;2023-08-24T11:46:18;31.30;57.40
25046;DHT22;13044;49.304;12.840;2023-08-24T11:48:45;31.30;58.00
25046;DHT22;13044;49.304;12.840;2023-08-24T11:51:13;31.30;58.60
25046;DHT22;13044;49.304;12.840;2023-08-24T11:53:44;31.40;59.20
25046;DHT22;13044;49.304;12.840;2023-08-24T11:56:12;31.30;58.00
25046;DHT22;13044;49.304;12.840;2023-08-24T11:58:41;31.30;58.10
25046;DHT22;13044;49.304;12.840;2023-08-24T12:01:10;31.20;56.60
25046;DHT22;13044;49.304;12.840;2023-08-24T12:03:39;31.20;57.80
25046;DHT22;13044;49.304;12.840;2023-08-24T12:06:13;31.30;58.10
25046;DHT22;13044;49.304;12.840;2023-08-24T12:08:43;31.30;58.60
25046;DHT22;13044;49.304;12.840;2023-08-24T12:11:16;31.30;59.00
25046;DHT22;13044;49.304;12.840;2023-08-24T12:13:49;31.40;59.60
25046;DHT22;13044;49.304;12.840;2023-08-24T12:16:18;31.50;59.10
25046;DHT22;13044;49.304;12.840;2023-08-24T12:18:57;31.50;59.60
25046;DHT22;13044;49.304;12.840;2023-08-24T12:21:27;31.60;59.50
25046;DHT22;13044;49.304;12.840;2023-08-24T12:24:04;31.70;58.30
25046;DHT22;13044;49.304;12.840;2023-08-24T12:26:33;31.70;58.60
25046;DHT22;13044;49.304;12.840;2023-08-24T12:29:03;31.80;59.10
25046;DHT22;13044;49.304;12.840;2023-08-24T12:31:33;31.80;58.70
25046;DHT22;13044;49.304;12.840;2023-08-24T12:34:01;31.90;57.80
25046;DHT22;13044;49.304;12.840;2023-08-24T12:36:32;32.00;58.50
25046;DHT22;13044;49.304;12.840;2023-08-24T12:38:59;32.00;57.70
25046;DHT22;13044;49.304;12.840;2023-08-24T12:41:26;32.10;57.60
25046;DHT22;13044;49.304;12.840;2023-08-24T12:43:53;32.20;56.50
25046;DHT22;13044;49.304;12.840;2023-08-24T12:46:20;32.20;56.40
25046;DHT22;13044;49.304;12.840;2023-08-24T12:48:47;32.30;57.30
25046;DHT22;13044;49.304;12.840;2023-08-24T12:51:14;32.30;57.10
25046;DHT22;13044;49.304;12.840;2023-08-24T12:53:41;32.40;56.90
25046;DHT22;13044;49.304;12.840;2023-08-24T12:56:09;32.40;55.90
25046;DHT22;13044;49.304;12.840;2023-08-24T12:58:35;32.50;56.20
25046;DHT22;13044;49.304;12.840;2023-08-24T13:01:02;32.60;56.60
25046;DHT22;13044;49.304;12.840;2023-08-24T13:03:29;32.50;56.50
25046;DHT22;13044;49.304;12.840;2023-08-24T13:05:56;32.60;56.20
25046;DHT22;13044;49.304;12.840;2023-08-24T13:08:39;32.60;55.90
25046;DHT22;13044;49.304;12.840;2023-08-24T13:11:06;32.60;56.30
25046;DHT22;13044;49.304;12.840;2023-08-24T13:13:32;32.50;55.00
25046;DHT22;13044;49.304;12.840;2023-08-24T13:15:59;32.50;55.30
25046;DHT22;13044;49.304;12.840;2023-08-24T13:18:26;32.50;55.60
25046;DHT22;13044;49.304;12.840;2023-08-24T13:20:53;32.60;56.20
25046;DHT22;13044;49.304;12.840;2023-08-24T13:23:20;32.60;57.10
25046;DHT22;13044;49.304;12.840;2023-08-24T13:25:47;32.70;56.90
25046;DHT22;13044;49.304;12.840;2023-08-24T13:28:14;32.80;56.60
25046;DHT22;13044;49.304;12.840;2023-08-24T13:30:41;32.80;56.20
25046;DHT22;13044;49.304;12.840;2023-08-24T13:33:09;32.80;55.70
25046;DHT22;13044;49.304;12.840;2023-08-24T13:35:36;32.80;56.00
25046;DHT22;13044;49.304;12.840;2023-08-24T13:38:03;32.90;56.50
25046;DHT22;13044;49.304;12.840;2023-08-24T13:40:30;32.90;56.20
25046;DHT22;13044;49.304;12.840;2023-08-24T13:42:57;33.00;56.70
25046;DHT22;13044;49.304;12.840;2023-08-24T13:45:24;33.00;56.80
25046;DHT22;13044;49.304;12.840;2023-08-24T13:47:51;33.10;56.70
25046;DHT22;13044;49.304;12.840;2023-08-24T13:50:18;33.10;57.00
25046;DHT22;13044;49.304;12.840;2023-08-24T13:52:45;33.20;56.90
25046;DHT22;13044;49.304;12.840;2023-08-24T13:55:12;33.10;56.50
25046;DHT22;13044;49.304;12.840;2023-08-24T13:57:39;33.10;56.50
25046;DHT22;13044;49.304;12.840;2023-08-24T14:00:07;33.20;57.20
25046;DHT22;13044;49.304;12.840;2023-08-24T14:02:35;33.10;56.80
25046;DHT22;13044;49.304;12.840;2023-08-24T14:05:02;33.20;56.60
25046;DHT22;13044;49.304;12.840;2023-08-24T14:07:29;33.10;56.20
25046;DHT22;13044;49.304;12.840;2023-08-24T14:09:57;33.00;55.40
25046;DHT22;13044;49.304;12.840;2023-08-24T14:12:32;33.00;55.10
25046;DHT22;13044;49.304;12.840;2023-08-24T14:14:59;33.00;55.30
25046;DHT22;13044;49.304;12.840;2023-08-24T14:17:27;32.90;54.70
25046;DHT22;13044;49.304;12.840;2023-08-24T14:19:54;32.80;54.30
25046;DHT22;13044;49.304;12.840;2023-08-24T14:22:21;32.80;54.90
25046;DHT22;13044;49.304;12.840;2023-08-24T14:24:48;32.90;54.40
25046;DHT22;13044;49.304;12.840;2023-08-24T14:27:15;32.90;54.40
25046;DHT22;13044;49.304;12.840;2023-08-24T14:29:42;32.80;54.70
25046;DHT22;13044;49.304;12.840;2023-08-24T14:32:09;32.80;54.40
25046;DHT22;13044;49.304;12.840;2023-08-24T14:34:36;32.80;55.00
25046;DHT22;13044;49.304;12.840;2023-08-24T14:37:02;32.80;55.40
25046;DHT22;13044;49.304;12.840;2023-08-24T14:39:29;32.70;55.60
25046;DHT22;13044;49.304;12.840;2023-08-24T14:41:56;32.60;55.90
25046;DHT22;13044;49.304;12.840;2023-08-24T14:44:23;32.50;56.30
25046;DHT22;13044;49.304;12.840;2023-08-24T14:46:50;32.40;56.20
25046;DHT22;13044;49.304;12.840;2023-08-24T14:49:18;32.30;55.80
25046;DHT22;13044;49.304;12.840;2023-08-24T14:51:46;32.30;55.90
25046;DHT22;13044;49.304;12.840;2023-08-24T14:54:13;32.20;55.90
25046;DHT22;13044;49.304;12.840;2023-08-24T14:56:41;32.10;56.00
25046;DHT22;13044;49.304;12.840;2023-08-24T14:59:08;32.10;56.20
25046;DHT22;13044;49.304;12.840;2023-08-24T15:01:35;31.90;56.60
25046;DHT22;13044;49.304;12.840;2023-08-24T15:04:02;31.90;57.50
25046;DHT22;13044;49.304;12.840;2023-08-24T15:06:29;31.80;58.00
25046;DHT22;13044;49.304;12.840;2023-08-24T15:08:56;31.70;58.40
25046;DHT22;13044;49.304;12.840;2023-08-24T15:11:24;31.60;58.40
25046;DHT22;13044;49.304;12.840;2023-08-24T15:13:52;31.60;57.90
25046;DHT22;13044;49.304;12.840;2023-08-24T15:16:19;31.50;58.00
25046;DHT22;13044;49.304;12.840;2023-08-24T15:18:46;31.40;58.50
25046;DHT22;13044;49.304;12.840;2023-08-24T15:21:13;31.40;58.40
25046;DHT22;13044;49.304;12.840;2023-08-24T15:23:41;31.30;58.40
25046;DHT22;13044;49.304;12.840;2023-08-24T15:26:08;31.30;58.50
25046;DHT22;13044;49.304;12.840;2023-08-24T15:31:42;31.40;59.10
25046;DHT22;13044;49.304;12.840;2023-08-24T15:34:10;31.40;59.00
25046;DHT22;13044;49.304;12.840;2023-08-24T15:36:37;31.40;58.50